createdAt,value
2017-05-23T00:04:33.736Z,17.6
2017-05-23T00:14:43.350Z,17.5
2017-05-23T00:24:53.013Z,17.4
2017-05-23T00:35:02.729Z,17.4
2017-05-23T00:45:12.440Z,17.5
2017-05-23T00:55:22.190Z,17.4
2017-05-23T01:05:31.963Z,17.2
2017-05-23T01:15:41.676Z,17.4
2017-05-23T01:25:51.427Z,17.2
2017-05-23T01:36:01.234Z,17.1
2017-05-23T01:46:11.073Z,17
2017-05-23T01:56:20.933Z,16.8
2017-05-23T02:06:30.790Z,16.5
2017-05-23T02:16:40.619Z,16.5
2017-05-23T02:26:50.441Z,16.4
2017-05-23T02:37:00.297Z,16.4
2017-05-23T02:47:10.084Z,16.2
2017-05-23T02:57:19.906Z,16.1
2017-05-23T03:07:29.735Z,15.8
2017-05-23T03:17:39.633Z,15.7
2017-05-23T03:27:49.568Z,15.7
2017-05-23T03:37:59.507Z,15.7
2017-05-23T03:48:09.401Z,15.6
2017-05-23T03:58:19.311Z,15.3
2017-05-23T04:08:29.246Z,15.2
2017-05-23T04:18:39.110Z,15.2
2017-05-23T04:28:48.956Z,15.7
2017-05-23T04:38:58.582Z,15.9
2017-05-23T04:49:08.116Z,16.2
2017-05-23T04:59:17.460Z,16.4
2017-05-23T05:09:26.731Z,16.3
2017-05-23T05:19:36.086Z,16.3
2017-05-23T05:29:45.375Z,16.7
2017-05-23T05:39:54.394Z,17.1
2017-05-23T05:50:03.256Z,17
2017-05-23T06:00:12.075Z,17.4
2017-05-23T06:10:20.732Z,17.6
2017-05-23T06:20:29.253Z,18.4
2017-05-23T06:30:37.642Z,18.3
2017-05-23T06:40:45.902Z,18.6
2017-05-23T06:50:54.166Z,18.8
2017-05-23T07:01:02.338Z,19.2
2017-05-23T07:11:10.365Z,19.9
2017-05-23T07:21:18.390Z,20.5
2017-05-23T07:31:26.459Z,20.2
2017-05-23T07:41:34.429Z,20.9
2017-05-23T07:51:42.234Z,21.5
2017-05-23T08:01:49.927Z,20.8
2017-05-23T08:11:57.677Z,21.6
2017-05-23T08:22:05.441Z,22.3
2017-05-23T08:32:12.889Z,21.8
2017-05-23T08:42:20.378Z,22
2017-05-23T08:52:27.941Z,22.8
2017-05-23T09:02:35.271Z,22.5
2017-05-23T09:12:42.690Z,22.5
2017-05-23T09:22:50.160Z,22.8
2017-05-23T09:32:57.601Z,22.9
2017-05-23T09:43:05.087Z,22.8
2017-05-23T09:53:12.598Z,22.9
2017-05-23T10:03:20.063Z,23.1
2017-05-23T10:13:27.435Z,22.9
2017-05-23T10:23:34.868Z,23.5
2017-05-23T10:33:42.177Z,23.1
2017-05-23T10:43:49.502Z,23.4
2017-05-23T11:04:04.134Z,23.4
2017-05-23T11:14:11.490Z,23.4
2017-05-23T11:24:18.839Z,22.9
2017-05-23T11:34:26.174Z,23
2017-05-23T11:44:33.479Z,23
2017-05-23T11:54:40.809Z,23.4
2017-05-23T12:04:48.046Z,23.6
2017-05-23T12:14:55.268Z,22.8
2017-05-23T12:25:02.686Z,23.2
2017-05-23T12:35:10.265Z,22.9
2017-05-23T12:45:17.867Z,22.8
2017-05-23T12:55:25.418Z,23.1
2017-05-23T13:05:32.894Z,22.7
2017-05-23T13:15:40.691Z,22.8
2017-05-23T13:25:48.233Z,22.9
2017-05-23T13:35:55.781Z,23.3
2017-05-23T13:46:03.310Z,23
2017-05-23T13:56:10.908Z,22.2
2017-05-23T14:06:18.585Z,22.6
2017-05-23T14:16:26.334Z,21.9
2017-05-23T14:26:34.200Z,21.8
2017-05-23T14:36:41.995Z,21.1
2017-05-23T14:46:49.736Z,20.7
2017-05-23T14:56:57.647Z,20.6
2017-05-23T15:07:05.652Z,20.1
2017-05-23T15:17:13.761Z,20.5
2017-05-23T15:27:21.814Z,19.9
2017-05-23T15:37:29.801Z,20
2017-05-23T15:47:37.786Z,19.6
2017-05-23T15:57:45.900Z,19.4
2017-05-23T16:07:54.105Z,19.1
2017-05-23T16:18:02.411Z,19.1
2017-05-23T16:28:10.663Z,19.1
2017-05-23T16:38:18.898Z,18.8
2017-05-23T16:48:27.178Z,18.7
2017-05-23T16:58:35.499Z,18.5
2017-05-23T17:08:43.941Z,18.5
2017-05-23T17:18:52.377Z,18.4
2017-05-23T17:29:00.915Z,18
2017-05-23T17:39:09.662Z,17.8
2017-05-23T17:49:18.483Z,17.6
2017-05-23T17:59:27.424Z,17.4
2017-05-23T18:09:36.434Z,17.3
2017-05-23T18:19:45.363Z,17.1
2017-05-23T18:29:54.347Z,17
2017-05-23T18:40:03.468Z,16.8
2017-05-23T18:50:12.670Z,16.5
2017-05-23T19:00:21.916Z,16.4
2017-05-23T19:10:31.188Z,16.1
2017-05-23T19:20:40.566Z,15.8
2017-05-23T19:30:50.032Z,15.6
2017-05-23T19:40:59.619Z,15.4
2017-05-23T19:51:09.247Z,15.2
2017-05-23T20:01:18.920Z,15
2017-05-23T20:11:28.670Z,15
2017-05-23T20:21:38.480Z,14.8
2017-05-23T20:31:48.247Z,14.7
2017-05-23T20:41:58.017Z,14.5
2017-05-23T20:52:07.815Z,14.3
2017-05-23T21:02:17.623Z,14.1
2017-05-23T21:12:27.486Z,14
2017-05-23T21:22:37.435Z,13.8
2017-05-23T21:32:47.380Z,13.7
2017-05-23T21:42:57.329Z,13.6
2017-05-23T21:53:07.297Z,13.4
2017-05-23T22:03:17.308Z,13.2
2017-05-23T22:13:27.341Z,13.1
2017-05-23T22:23:37.404Z,12.9
2017-05-23T22:33:47.480Z,12.9
2017-05-23T22:43:57.560Z,12.8
2017-05-23T22:54:07.689Z,12.7
2017-05-23T23:04:17.840Z,12.5
2017-05-23T23:14:27.998Z,12.4
2017-05-23T23:24:38.176Z,12.2
2017-05-23T23:34:48.375Z,12.1
2017-05-23T23:44:58.553Z,12
2017-05-23T23:55:08.751Z,11.9
